createdAt,value
2023-01-15T00:01:59.694Z,8.98
2023-01-15T00:04:26.186Z,8.95
2023-01-15T00:06:54.542Z,9.05
2023-01-15T00:09:21.047Z,9.08
2023-01-15T00:11:47.657Z,8.93
2023-01-15T00:14:14.333Z,9.02
2023-01-15T00:16:40.919Z,8.97
2023-01-15T00:19:10.918Z,8.99
2023-01-15T00:21:37.570Z,8.99
2023-01-15T00:24:22.677Z,9.03
2023-01-15T00:27:07.769Z,9.09
2023-01-15T00:29:34.676Z,8.92
2023-01-15T00:32:08.370Z,8.95
2023-01-15T00:34:36.028Z,9.07
2023-01-15T00:37:02.931Z,9.07
2023-01-15T00:39:33.448Z,9.13
2023-01-15T00:42:00.052Z,9.06
2023-01-15T00:44:26.566Z,9.09
2023-01-15T00:46:53.156Z,9.21
2023-01-15T00:49:20.978Z,9.09
2023-01-15T00:51:48.524Z,9.30
2023-01-15T00:54:15.034Z,9.32
2023-01-15T00:56:41.596Z,9.39
2023-01-15T00:59:08.209Z,9.40
2023-01-15T01:01:35.032Z,9.29
2023-01-15T01:04:01.716Z,9.33
2023-01-15T01:06:28.635Z,9.21
2023-01-15T01:08:55.768Z,9.27
2023-01-15T01:11:26.582Z,9.24
2023-01-15T01:13:56.977Z,9.25
2023-01-15T01:16:33.667Z,9.36
2023-01-15T01:19:01.789Z,9.32
2023-01-15T01:21:28.390Z,9.45
2023-01-15T01:23:55.156Z,9.36
2023-01-15T01:26:22.113Z,9.47
2023-01-15T01:28:50.532Z,9.60
2023-01-15T01:31:17.431Z,9.42
2023-01-15T01:33:43.985Z,9.54
2023-01-15T01:36:10.969Z,9.62
2023-01-15T01:38:37.473Z,9.59
2023-01-15T01:41:04.466Z,9.67
2023-01-15T01:43:31.123Z,9.75
2023-01-15T01:45:59.033Z,9.67
2023-01-15T01:48:29.736Z,9.65
2023-01-15T01:51:00.412Z,9.64
2023-01-15T01:53:29.364Z,9.59
2023-01-15T01:55:56.450Z,9.56
2023-01-15T01:58:24.874Z,9.61
2023-01-15T02:00:52.127Z,9.61
2023-01-15T02:03:20.646Z,9.56
2023-01-15T02:05:54.356Z,9.57
2023-01-15T02:08:22.231Z,9.55
2023-01-15T02:10:52.535Z,9.53
2023-01-15T02:13:38.138Z,9.20
2023-01-15T02:16:23.429Z,9.06
2023-01-15T02:19:11.118Z,9.21
2023-01-15T02:21:52.521Z,9.10
2023-01-15T02:24:58.057Z,9.22
2023-01-15T02:27:25.318Z,9.17
2023-01-15T02:30:09.284Z,9.09
2023-01-15T02:32:53.201Z,9.11
2023-01-15T02:35:27.204Z,9.14
2023-01-15T02:37:56.939Z,9.16
2023-01-15T02:40:25.034Z,9.16
2023-01-15T02:42:53.400Z,9.04
2023-01-15T02:45:27.050Z,9.13
2023-01-15T02:47:54.942Z,9.06
2023-01-15T02:50:26.708Z,9.07
2023-01-15T02:52:56.766Z,9.01
2023-01-15T02:55:30.913Z,8.92
2023-01-15T02:58:00.157Z,9.02
2023-01-15T03:00:30.378Z,9.01
2023-01-15T03:03:08.222Z,8.95
2023-01-15T03:05:51.176Z,9.05
2023-01-15T03:08:18.352Z,9.14
2023-01-15T03:10:53.300Z,9.15
2023-01-15T03:13:53.529Z,9.02
2023-01-15T03:16:35.302Z,9.18
2023-01-15T03:19:06.960Z,9.21
2023-01-15T03:21:46.795Z,9.19
2023-01-15T03:24:19.651Z,9.22
2023-01-15T03:26:46.311Z,9.22
2023-01-15T03:29:14.192Z,9.26
2023-01-15T03:31:40.941Z,9.19
2023-01-15T03:34:07.548Z,9.06
2023-01-15T03:36:34.378Z,9.16
2023-01-15T03:39:02.207Z,9.24
2023-01-15T03:41:50.697Z,9.20
2023-01-15T03:44:35.825Z,9.20
2023-01-15T03:47:21.185Z,9.28
2023-01-15T03:50:02.878Z,9.33
2023-01-15T03:53:07.699Z,9.31
2023-01-15T03:55:45.693Z,9.30
2023-01-15T03:58:51.081Z,9.24
2023-01-15T04:01:30.167Z,9.30
2023-01-15T04:03:58.483Z,9.31
2023-01-15T04:06:28.158Z,9.30
2023-01-15T04:08:55.514Z,9.17
2023-01-15T04:11:24.633Z,8.96
2023-01-15T04:13:54.584Z,8.73
2023-01-15T04:16:36.140Z,8.65
2023-01-15T04:19:03.539Z,8.21
2023-01-15T04:21:32.842Z,7.95
2023-01-15T04:23:59.687Z,7.88
2023-01-15T04:26:26.293Z,7.71
2023-01-15T04:28:52.982Z,7.47
2023-01-15T04:31:19.941Z,7.44
2023-01-15T04:33:46.529Z,7.38
2023-01-15T04:36:14.548Z,7.48
2023-01-15T04:38:41.387Z,7.29
2023-01-15T04:41:26.434Z,7.15
2023-01-15T04:44:08.087Z,6.95
2023-01-15T04:46:40.211Z,6.88
2023-01-15T04:49:09.815Z,6.89
2023-01-15T04:51:36.639Z,6.85
2023-01-15T04:54:05.542Z,6.77
2023-01-15T04:56:32.923Z,6.69
2023-01-15T04:59:01.626Z,6.76
2023-01-15T05:01:28.595Z,6.57
2023-01-15T05:03:55.205Z,6.66
2023-01-15T05:06:21.740Z,6.63
2023-01-15T05:08:48.307Z,6.63
2023-01-15T05:11:14.882Z,6.66
2023-01-15T05:13:41.393Z,6.66
2023-01-15T05:16:21.407Z,6.66
2023-01-15T05:18:48.052Z,6.61
2023-01-15T05:21:28.973Z,6.65
2023-01-15T05:23:57.311Z,6.62
2023-01-15T05:26:24.896Z,6.62
2023-01-15T05:28:56.857Z,6.62
2023-01-15T05:31:24.372Z,6.59
2023-01-15T05:33:51.442Z,6.60
2023-01-15T05:36:20.828Z,6.62
2023-01-15T05:38:47.431Z,6.63
2023-01-15T05:41:49.007Z,6.67
2023-01-15T05:44:28.919Z,6.61
2023-01-15T05:46:58.284Z,6.63
2023-01-15T05:49:26.611Z,6.64
2023-01-15T05:51:54.132Z,6.63
2023-01-15T05:54:23.253Z,6.66
2023-01-15T05:56:49.843Z,6.65
2023-01-15T05:59:17.983Z,6.67
2023-01-15T06:01:44.500Z,6.67
2023-01-15T06:04:14.134Z,6.70
2023-01-15T06:06:41.852Z,6.72
2023-01-15T06:09:08.325Z,6.73
2023-01-15T06:11:34.833Z,6.73
2023-01-15T06:14:01.726Z,6.74
2023-01-15T06:16:28.262Z,6.69
2023-01-15T06:18:54.749Z,6.73
2023-01-15T06:21:21.577Z,6.69
2023-01-15T06:23:48.065Z,6.67
2023-01-15T06:26:16.870Z,6.68
2023-01-15T06:28:44.582Z,6.68
2023-01-15T06:31:13.375Z,6.65
2023-01-15T06:33:39.938Z,6.62
2023-01-15T06:36:08.935Z,6.62
2023-01-15T06:38:35.463Z,6.57
2023-01-15T06:41:03.024Z,6.55
2023-01-15T06:43:48.207Z,6.55
2023-01-15T06:46:34.005Z,6.55
2023-01-15T06:49:00.528Z,6.49
2023-01-15T06:51:27.230Z,6.53
2023-01-15T06:53:54.254Z,6.49
2023-01-15T06:56:20.770Z,6.49
2023-01-15T06:58:47.361Z,6.50
2023-01-15T07:01:15.463Z,6.50
2023-01-15T07:03:42.148Z,6.48
2023-01-15T07:06:11.041Z,6.50
2023-01-15T07:08:38.101Z,6.41
2023-01-15T07:11:05.978Z,6.42
2023-01-15T07:13:32.915Z,6.40
2023-01-15T07:16:03.567Z,6.37
2023-01-15T07:18:32.943Z,6.37
2023-01-15T07:20:59.541Z,6.04
2023-01-15T07:23:27.172Z,6.09
2023-01-15T07:25:54.437Z,5.99
2023-01-15T07:28:22.248Z,6.18
2023-01-15T07:30:48.750Z,6.23
2023-01-15T07:33:15.334Z,6.28
2023-01-15T07:35:42.215Z,6.24
2023-01-15T07:38:08.701Z,6.26
2023-01-15T07:40:35.209Z,6.06
2023-01-15T07:43:20.496Z,6.15
2023-01-15T07:46:08.032Z,6.23
2023-01-15T07:48:53.154Z,6.25
2023-01-15T07:51:19.661Z,6.27
2023-01-15T07:53:46.112Z,6.30
2023-01-15T07:56:12.724Z,6.31
2023-01-15T07:58:39.218Z,6.27
2023-01-15T08:01:05.866Z,6.21
2023-01-15T08:03:32.490Z,6.26
2023-01-15T08:05:59.161Z,6.14
2023-01-15T08:08:25.859Z,6.24
2023-01-15T08:11:11.387Z,6.23
2023-01-15T08:13:56.226Z,6.32
2023-01-15T08:16:22.798Z,6.28
2023-01-15T08:18:49.292Z,6.28
2023-01-15T08:21:16.429Z,6.19
2023-01-15T08:23:43.469Z,6.25
2023-01-15T08:26:09.941Z,6.17
2023-01-15T08:28:36.449Z,6.25
2023-01-15T08:31:02.883Z,6.21
2023-01-15T08:33:29.391Z,6.28
2023-01-15T08:35:57.357Z,6.21
2023-01-15T08:38:23.948Z,6.28
2023-01-15T08:40:59.525Z,6.29
2023-01-15T08:43:31.377Z,6.34
2023-01-15T08:45:59.419Z,6.37
2023-01-15T08:48:26.829Z,6.39
2023-01-15T08:50:53.376Z,6.40
2023-01-15T08:53:20.218Z,6.40
2023-01-15T08:55:47.646Z,6.38
2023-01-15T08:58:15.081Z,6.43
2023-01-15T09:00:41.915Z,6.50
2023-01-15T09:03:08.439Z,6.50
2023-01-15T09:05:37.020Z,6.47
2023-01-15T09:08:05.511Z,6.49
2023-01-15T09:10:32.306Z,6.45
2023-01-15T09:13:00.625Z,6.38
2023-01-15T09:15:28.615Z,6.45
2023-01-15T09:17:55.890Z,6.47
2023-01-15T09:20:22.523Z,6.52
2023-01-15T09:22:49.363Z,6.53
2023-01-15T09:25:16.766Z,6.61
2023-01-15T09:27:43.422Z,6.63
2023-01-15T09:30:22.868Z,6.48
2023-01-15T09:32:49.396Z,6.59
2023-01-15T09:35:16.134Z,6.66
2023-01-15T09:37:42.769Z,6.66
2023-01-15T09:40:23.326Z,6.66
2023-01-15T09:42:53.244Z,6.64
2023-01-15T09:45:29.483Z,6.71
2023-01-15T09:48:05.175Z,6.74
2023-01-15T09:50:55.796Z,6.79
2023-01-15T09:53:43.631Z,6.81
2023-01-15T09:56:29.887Z,6.79
2023-01-15T09:58:58.196Z,6.82
2023-01-15T10:01:29.487Z,6.87
2023-01-15T10:04:29.457Z,6.88
2023-01-15T10:07:18.283Z,6.91
2023-01-15T10:09:47.581Z,6.98
2023-01-15T10:12:36.705Z,6.88
2023-01-15T10:15:21.112Z,7.06
2023-01-15T10:17:49.849Z,7.15
2023-01-15T10:20:51.374Z,7.09
2023-01-15T10:23:49.751Z,7.02
2023-01-15T10:26:22.441Z,7.13
2023-01-15T10:29:26.804Z,7.02
2023-01-15T10:31:55.576Z,7.12
2023-01-15T10:34:27.946Z,7.10
2023-01-15T10:37:01.233Z,7.27
2023-01-15T10:39:34.945Z,7.26
2023-01-15T10:42:19.300Z,7.21
2023-01-15T10:44:51.043Z,7.29
2023-01-15T10:47:28.607Z,7.29
2023-01-15T10:49:55.902Z,7.33
2023-01-15T10:52:27.476Z,7.37
2023-01-15T10:55:17.385Z,7.39
2023-01-15T10:58:01.830Z,7.41
2023-01-15T11:00:37.205Z,7.44
2023-01-15T11:03:08.473Z,7.55
2023-01-15T11:05:35.892Z,7.59
2023-01-15T11:08:36.928Z,7.63
2023-01-15T11:10:52.805Z,7.62
2023-01-15T11:13:45.147Z,7.65
2023-01-15T11:16:34.773Z,7.60
2023-01-15T11:19:25.020Z,7.62
2023-01-15T11:21:52.466Z,7.70
2023-01-15T11:24:19.522Z,7.70
2023-01-15T11:26:48.662Z,7.69
2023-01-15T11:29:32.111Z,7.68
2023-01-15T11:31:58.640Z,7.74
2023-01-15T11:34:25.143Z,7.69
2023-01-15T11:37:02.495Z,7.75
2023-01-15T11:39:31.188Z,7.79
2023-01-15T11:42:21.394Z,7.72
2023-01-15T11:45:14.824Z,7.49
2023-01-15T11:48:13.214Z,7.63
2023-01-15T11:51:06.998Z,7.60
2023-01-15T11:53:38.408Z,7.64
2023-01-15T11:56:08.687Z,7.73
2023-01-15T11:58:54.345Z,7.72
2023-01-15T12:01:28.476Z,7.65
2023-01-15T12:03:55.681Z,7.73
2023-01-15T12:06:22.789Z,7.74
2023-01-15T12:09:00.392Z,7.71
2023-01-15T12:11:45.361Z,7.77
2023-01-15T12:14:46.519Z,7.70
2023-01-15T12:17:38.449Z,7.64
2023-01-15T12:20:14.317Z,7.73
2023-01-15T12:22:50.570Z,7.69
2023-01-15T12:25:26.190Z,7.83
2023-01-15T12:27:57.619Z,7.83
2023-01-15T12:30:29.584Z,7.84
2023-01-15T12:33:16.286Z,7.82
2023-01-15T12:35:46.754Z,7.93
2023-01-15T12:38:37.103Z,7.94
2023-01-15T12:41:15.501Z,8.14
2023-01-15T12:44:05.350Z,8.20
2023-01-15T12:46:36.866Z,8.15
2023-01-15T12:49:11.417Z,8.08
2023-01-15T12:51:49.367Z,8.03
2023-01-15T12:54:21.522Z,8.11
2023-01-15T12:57:36.675Z,7.98
2023-01-15T13:00:13.513Z,8.04
2023-01-15T13:03:13.968Z,8.02
2023-01-15T13:05:53.203Z,7.94
2023-01-15T13:08:23.843Z,8.01
2023-01-15T13:10:51.037Z,8.07
2023-01-15T13:13:24.623Z,8.23
2023-01-15T13:16:11.915Z,8.41
2023-01-15T13:18:44.758Z,8.67
2023-01-15T13:21:14.816Z,8.97
2023-01-15T13:24:18.628Z,9.05
2023-01-15T13:27:00.583Z,9.27
2023-01-15T13:30:14.074Z,9.01
2023-01-15T13:32:48.535Z,9.17
2023-01-15T13:35:32.693Z,9.08
2023-01-15T13:38:01.961Z,9.05
2023-01-15T13:40:35.242Z,8.85
2023-01-15T13:43:02.815Z,8.71
2023-01-15T13:45:34.198Z,8.60
2023-01-15T13:48:39.321Z,8.44
2023-01-15T13:51:07.128Z,8.32
2023-01-15T13:53:45.392Z,8.24
2023-01-15T13:56:15.657Z,8.16
2023-01-15T13:58:57.619Z,8.09
2023-01-15T14:01:26.688Z,8.07
2023-01-15T14:03:58.827Z,8.11
2023-01-15T14:06:37.265Z,8.00
2023-01-15T14:09:05.282Z,7.90
2023-01-15T14:11:43.251Z,7.87
2023-01-15T14:14:37.782Z,7.74
2023-01-15T14:17:22.658Z,7.63
2023-01-15T14:19:58.321Z,7.47
2023-01-15T14:22:39.018Z,7.52
2023-01-15T14:25:29.595Z,7.36
2023-01-15T14:28:21.999Z,7.50
2023-01-15T14:31:04.807Z,7.44
2023-01-15T14:33:50.895Z,7.39
2023-01-15T14:36:19.496Z,7.43
2023-01-15T14:38:52.901Z,7.29
2023-01-15T14:41:27.083Z,7.28
2023-01-15T14:43:53.919Z,7.33
2023-01-15T14:46:26.838Z,7.26
2023-01-15T14:48:53.486Z,7.28
2023-01-15T14:51:27.697Z,7.25
2023-01-15T14:54:01.418Z,7.32
2023-01-15T14:56:34.852Z,7.24
2023-01-15T14:59:18.479Z,7.14
2023-01-15T15:01:51.406Z,7.26
2023-01-15T15:04:23.266Z,7.27
2023-01-15T15:07:02.951Z,7.17
2023-01-15T15:09:49.108Z,7.23
2023-01-15T15:12:29.760Z,7.14
2023-01-15T15:15:17.416Z,7.03
2023-01-15T15:18:01.103Z,6.99
2023-01-15T15:20:39.460Z,6.95
2023-01-15T15:23:14.966Z,6.95
2023-01-15T15:25:41.794Z,7.00
2023-01-15T15:28:12.133Z,7.00
2023-01-15T15:30:44.358Z,6.86
2023-01-15T15:33:17.198Z,6.84
2023-01-15T15:35:47.066Z,6.88
2023-01-15T15:38:19.010Z,6.86
2023-01-15T15:40:49.343Z,6.81
2023-01-15T15:43:52.844Z,6.76
2023-01-15T15:46:44.069Z,6.69
2023-01-15T15:49:11.081Z,6.64
2023-01-15T15:51:40.671Z,6.66
2023-01-15T15:54:17.976Z,6.63
2023-01-15T15:56:51.008Z,6.59
2023-01-15T15:59:27.776Z,6.55
2023-01-15T16:01:55.579Z,6.54
2023-01-15T16:04:22.949Z,6.52
2023-01-15T16:06:49.635Z,6.47
2023-01-15T16:09:22.299Z,6.32
2023-01-15T16:11:50.086Z,6.39
2023-01-15T16:14:17.285Z,6.35
2023-01-15T16:16:44.676Z,6.36
2023-01-15T16:19:17.865Z,6.34
2023-01-15T16:21:44.631Z,6.33
2023-01-15T16:24:26.754Z,6.27
2023-01-15T16:26:58.457Z,6.06
2023-01-15T16:29:27.349Z,6.11
2023-01-15T16:31:56.605Z,6.14
2023-01-15T16:34:25.799Z,6.17
2023-01-15T16:36:52.910Z,6.12
2023-01-15T16:39:22.370Z,6.13
2023-01-15T16:41:49.541Z,6.05
2023-01-15T16:44:26.297Z,6.15
2023-01-15T16:46:58.555Z,6.08
2023-01-15T16:49:27.861Z,6.06
2023-01-15T16:51:57.383Z,6.06
2023-01-15T16:54:29.677Z,6.06
2023-01-15T16:57:12.670Z,5.92
2023-01-15T16:59:56.151Z,6.05
2023-01-15T17:02:22.876Z,6.00
2023-01-15T17:04:52.067Z,5.97
2023-01-15T17:07:31.736Z,6.02
2023-01-15T17:09:59.736Z,6.00
2023-01-15T17:12:39.906Z,6.02
2023-01-15T17:15:35.825Z,5.96
2023-01-15T17:18:19.506Z,6.02
2023-01-15T17:20:46.146Z,5.97
2023-01-15T17:23:13.466Z,6.01
2023-01-15T17:25:39.997Z,6.00
2023-01-15T17:28:08.062Z,6.00
2023-01-15T17:30:34.790Z,5.98
2023-01-15T17:33:02.800Z,6.00
2023-01-15T17:35:31.144Z,6.03
2023-01-15T17:37:57.850Z,5.97
2023-01-15T17:40:24.794Z,6.02
2023-01-15T17:42:51.294Z,5.95
2023-01-15T17:45:23.645Z,6.03
2023-01-15T17:47:50.181Z,6.05
2023-01-15T17:50:17.511Z,6.05
2023-01-15T17:52:44.563Z,6.14
2023-01-15T17:55:34.447Z,6.07
2023-01-15T17:58:19.517Z,5.97
2023-01-15T18:01:05.029Z,6.00
2023-01-15T18:03:50.462Z,6.07
2023-01-15T18:06:17.735Z,6.10
2023-01-15T18:08:47.267Z,6.09
2023-01-15T18:11:13.785Z,6.11
2023-01-15T18:13:43.150Z,6.12
2023-01-15T18:16:10.150Z,6.09
2023-01-15T18:18:37.055Z,6.12
2023-01-15T18:21:04.058Z,6.14
2023-01-15T18:23:31.197Z,6.19
2023-01-15T18:26:02.963Z,6.19
2023-01-15T18:28:31.652Z,6.10
2023-01-15T18:30:58.231Z,6.15
2023-01-15T18:33:24.720Z,6.17
2023-01-15T18:35:51.277Z,6.16
2023-01-15T18:38:17.762Z,6.19
2023-01-15T18:40:44.249Z,6.19
2023-01-15T18:43:29.538Z,6.22
2023-01-15T18:46:34.687Z,6.24
2023-01-15T18:49:01.249Z,6.19
2023-01-15T18:51:27.777Z,6.14
2023-01-15T18:53:54.316Z,6.23
2023-01-15T18:56:39.042Z,6.28
2023-01-15T18:59:13.230Z,6.23
2023-01-15T19:01:40.929Z,6.27
2023-01-15T19:04:10.724Z,6.34
2023-01-15T19:06:40.597Z,6.25
2023-01-15T19:09:08.519Z,6.29
2023-01-15T19:11:35.120Z,6.25
2023-01-15T19:14:20.143Z,6.37
2023-01-15T19:17:05.153Z,6.34
2023-01-15T19:19:31.719Z,6.33
2023-01-15T19:22:16.909Z,6.28
2023-01-15T19:24:43.544Z,6.31
2023-01-15T19:27:10.150Z,6.28
2023-01-15T19:29:36.659Z,6.27
2023-01-15T19:32:04.150Z,6.32
2023-01-15T19:34:34.067Z,6.40
2023-01-15T19:37:01.030Z,6.29
2023-01-15T19:39:28.639Z,6.36
2023-01-15T19:42:15.140Z,6.36
2023-01-15T19:45:00.251Z,6.25
2023-01-15T19:47:48.386Z,6.32
2023-01-15T19:50:19.349Z,6.33
2023-01-15T19:52:53.737Z,6.37
2023-01-15T19:55:21.521Z,6.35
2023-01-15T19:57:55.023Z,6.41
2023-01-15T20:00:22.416Z,6.33
2023-01-15T20:02:49.316Z,6.35
2023-01-15T20:05:16.379Z,6.36
2023-01-15T20:07:43.363Z,6.34
2023-01-15T20:10:13.657Z,6.36
2023-01-15T20:12:59.510Z,6.38
2023-01-15T20:15:26.393Z,6.34
2023-01-15T20:17:53.293Z,6.30
2023-01-15T20:20:20.461Z,6.28
2023-01-15T20:22:47.008Z,6.34
2023-01-15T20:25:13.545Z,6.33
2023-01-15T20:27:40.785Z,6.39
2023-01-15T20:30:10.433Z,6.34
2023-01-15T20:32:38.044Z,6.30
2023-01-15T20:35:06.340Z,6.26
2023-01-15T20:37:32.983Z,6.28
2023-01-15T20:39:59.579Z,6.27
2023-01-15T20:42:46.369Z,6.24
2023-01-15T20:45:15.167Z,6.28
2023-01-15T20:48:00.951Z,6.30
2023-01-15T20:50:36.111Z,6.28
2023-01-15T20:53:04.238Z,6.19
2023-01-15T20:55:45.651Z,6.20
2023-01-15T20:58:20.806Z,6.25
2023-01-15T21:00:47.426Z,6.27
2023-01-15T21:03:14.083Z,6.25
2023-01-15T21:05:40.663Z,6.31
2023-01-15T21:08:07.206Z,6.29
2023-01-15T21:10:33.688Z,6.25
2023-01-15T21:13:00.255Z,6.26
2023-01-15T21:15:26.758Z,6.23
2023-01-15T21:17:53.222Z,6.25
2023-01-15T21:20:19.943Z,6.09
2023-01-15T21:22:47.495Z,6.21
2023-01-15T21:25:14.082Z,6.20
2023-01-15T21:27:40.901Z,6.11
2023-01-15T21:30:08.612Z,6.15
2023-01-15T21:32:35.106Z,6.15
2023-01-15T21:35:01.765Z,6.24
2023-01-15T21:37:28.339Z,6.22
2023-01-15T21:39:54.817Z,6.19
2023-01-15T21:42:40.698Z,6.22
2023-01-15T21:45:08.056Z,6.19
2023-01-15T21:47:36.832Z,6.20
2023-01-15T21:50:05.172Z,6.19
2023-01-15T21:52:33.516Z,6.23
2023-01-15T21:55:00.362Z,6.26
2023-01-15T21:57:28.969Z,6.31
2023-01-15T21:59:55.540Z,6.28
2023-01-15T22:02:23.453Z,6.20
2023-01-15T22:04:50.250Z,6.25
2023-01-15T22:07:17.889Z,6.20
2023-01-15T22:09:44.528Z,6.24
2023-01-15T22:12:12.409Z,6.22
2023-01-15T22:14:38.916Z,6.20
2023-01-15T22:17:05.764Z,6.15
2023-01-15T22:19:32.946Z,6.04
2023-01-15T22:22:01.969Z,5.97
2023-01-15T22:24:33.049Z,6.01
2023-01-15T22:27:00.291Z,5.90
2023-01-15T22:29:29.914Z,5.99
2023-01-15T22:31:56.839Z,5.91
2023-01-15T22:34:24.066Z,5.92
2023-01-15T22:36:51.340Z,5.91
2023-01-15T22:39:18.441Z,5.96
2023-01-15T22:42:04.196Z,5.95
2023-01-15T22:44:30.913Z,5.90
2023-01-15T22:46:57.996Z,5.89
2023-01-15T22:49:24.851Z,5.87
2023-01-15T22:51:51.741Z,5.89
2023-01-15T22:54:19.247Z,5.87
2023-01-15T22:56:46.165Z,5.87
2023-01-15T22:59:13.682Z,5.76
2023-01-15T23:01:40.630Z,5.87
2023-01-15T23:04:21.173Z,5.82
2023-01-15T23:06:48.977Z,5.85
2023-01-15T23:09:15.546Z,5.87
2023-01-15T23:11:42.211Z,5.90
2023-01-15T23:14:10.722Z,5.86
2023-01-15T23:16:37.219Z,5.88
2023-01-15T23:19:04.020Z,5.76
2023-01-15T23:21:30.615Z,5.79
2023-01-15T23:23:59.232Z,5.90
2023-01-15T23:26:27.809Z,5.89
2023-01-15T23:28:54.991Z,5.93
2023-01-15T23:31:21.607Z,5.90
2023-01-15T23:33:48.201Z,5.89
2023-01-15T23:36:15.049Z,5.94
2023-01-15T23:38:42.919Z,5.86
2023-01-15T23:41:14.224Z,5.92
2023-01-15T23:44:19.723Z,5.84
2023-01-15T23:46:48.130Z,5.82
2023-01-15T23:49:15.965Z,5.75
2023-01-15T23:51:42.664Z,5.60
2023-01-15T23:54:09.254Z,5.85
2023-01-15T23:56:35.835Z,5.93
2023-01-15T23:59:02.371Z,5.96
